General Aviation Weather

Text Reports

Enter one or more of the following location identifiers separated by a space:

Zip Code, Four-Character ICAO or Three-Character IATA airport codes.

METAR - Aviation Routine Weather Report
KPTS - Pittsburg, Kansas
Updated at 11:55 AM GMT on September 16, 2014 (6:55 AM CDT):
METAR KPTS 161155Z AUTO 04009KT 10SM OVC021 15/14 A3019 RMK AO2 T01510140
TAF - Terminal Area Forecast
KPTS - Pittsburg, Kansas
Updated at 11:55 AM GMT on September 16, 2014 (6:55 AM CDT):
No TAF is currently available for this location.
Decoded:
No decoded TAF is available.
PIREP - Pilot Weather Report
KPTS - Pittsburg, Kansas
Updated at 11:55 AM GMT on September 16, 2014 (6:55 AM CDT):
No PIREP is currently available for this location.
AIRMET - Airmens Meteorological Information
KPTS - Pittsburg, Kansas
Updated at 11:55 AM GMT on September 16, 2014 (6:55 AM CDT):
No AIRMET is currently available for this location.
SIGMET - Significant Meteorological Information
KPTS - Pittsburg, Kansas
Updated at 11:55 AM GMT on September 16, 2014 (6:55 AM CDT):
No SIGMET is currently available for this location.
NOTAM - Notice to Airmen
KPTS - Pittsburg, Kansas
Updated at 11:55 AM GMT on September 16, 2014 (6:55 AM CDT):
No NOTAM is currently available for this location.
Forecast Area
KPTS - Pittsburg, Kansas
Updated at 11:55 AM GMT on September 16, 2014 (6:55 AM CDT):
No NOTAM is currently available for this location.
Aviation Weather Maps